This is the latest recevied weather packets stored in our database for station/object VE6HFD-WX. If no packets are shown the sender has not sent any weather packets the latest 10 day(s).
| Time | Temp. | Humidity | Pressure | Rain* | Wind** | Luminosity | Snow |
|---|---|---|---|---|---|---|---|
| 1778008418 | 5.56° C | 50% | 1022.1 hPa | 0 mm | - | - | - |
| 1778008088 | 5.56° C | 51% | 1022.2 hPa | 0 mm | - | - | - |
| 1778007788 | 6.11° C | 51% | 1022.1 hPa | 0 mm | - | - | - |
| 1778007458 | 6.11° C | 51% | 1022 hPa | 0 mm | - | - | - |
| 1778007128 | 5.56° C | 54% | 1022.2 hPa | 0 mm | - | - | - |
| 1778006798 | 6.11° C | 50% | 1022.2 hPa | 0 mm | - | - | - |
| 1778006468 | 5.56° C | 53% | 1022.3 hPa | 0 mm | - | - | - |
| 1778006168 | 5° C | 55% | 1022.3 hPa | 0 mm | - | - | - |
| 1778005838 | 5° C | 55% | 1022.3 hPa | 0 mm | - | - | - |
| 1778005508 | 5.56° C | 54% | 1022.3 hPa | 0 mm | - | - | - |
| 1778005208 | 5.56° C | 54% | 1022.3 hPa | 0 mm | - | - | - |
| 1778004908 | 5.56° C | 56% | 1022.4 hPa | 0 mm | - | - | - |
| 1778004578 | 5° C | 56% | 1022.5 hPa | 0 mm | - | - | - |
| 1778004266 | 5.56° C | 55% | 1022.5 hPa | 0 mm | - | - | - |
| 1778003936 | 5° C | 56% | 1022.5 hPa | 0 mm | - | - | - |
| 1778003606 | 4.44° C | 57% | 1022.6 hPa | 0 mm | - | - | - |
| 1778003306 | 4.44° C | 58% | 1022.6 hPa | 0 mm | - | - | - |
| 1778003006 | 3.89° C | 58% | 1022.6 hPa | 0 mm | - | - | - |
| 1778002706 | 3.33° C | 59% | 1022.6 hPa | 0 mm | - | - | - |
| 1778002406 | 3.89° C | 58% | 1022.6 hPa | 0 mm | - | - | - |
| 1778002106 | 3.89° C | 58% | 1022.6 hPa | 0 mm | - | - | - |
| 1778001776 | 3.89° C | 57% | 1022.6 hPa | 0 mm | - | - | - |
| 1778001446 | 3.89° C | 59% | 1022.7 hPa | 0 mm | - | - | - |
| 1778001116 | 3.89° C | 59% | 1022.7 hPa | 0 mm | - | - | - |
| 1778000816 | 3.33° C | 58% | 1022.7 hPa | 0 mm | - | - | - |
* Rain latest hour (hover to see other rain measurements)
** Current wind speed in m/s (hover to see current wind gust speed)